North Amherst, Massachusetts
Current Conditions -  °F | °C
As of 6:58 AM on Thursday 29 Jan 2015 (Local Time) from KCEF Reporting Station
Clear Clear  
Wind Chill: -11°   Ceiling: Unl
Heat Index: -11°   Visibility: 10mi
Dew Point: -16°   Wind: 2mph
Humidity: 78%   Direction: 320°NW
Pressure: 30.31"   Gusts: NA
Location:  42.41°N, 72.53°W
Report Text: KCEF 291158Z AUTO 32002KT 10SM CLR M24/M27 A3031 RMK AO2 SLP276 T12391268 11173 21239 52008
Loading
Personal Weather Stations






























Interactive Weather Map New forecast layout! Learn more

10-Day Weather Forecast

Advertisements
Track Severe Weather on mobile